Time;durP1;ratioP1;P1;durP2;ratioP2;P2;SDS_P1;SDS_P2;PMS_P1;PMS_P2;Temp;Humidity;BMP_temperature;BMP_pressure;BME280_temperature;BME280_humidity;BME280_pressure;Samples;Min_cycle;Max_cycle;Signal;HPM_P1;HPM_P2
2023/11/18 09:52:00;;;;;;;;;;;;;;;10.17;61.81;100773.13;815945;54;50758;-82
2023/11/18 09:53:07;;;;;;;;;;;;;;;10.25;61.60;100768.00;1088376;54;1846;-81
2023/11/18 09:54:14;;;;;;;;;;;;;;;10.21;61.92;100767.41;1088380;54;986;-81
2023/11/18 09:55:23;;;;;;;;;;;;;;;10.11;62.01;100759.25;1088370;54;919;-83
2023/11/18 09:56:45;;;;;;;;;;;;;;;10.19;62.10;100765.84;1088397;54;929;-82
2023/11/18 09:57:57;;;;;;;;;;;;;;;10.31;61.80;100767.47;1088096;47;977;-83
2023/11/18 09:59:06;;;;;;;;;;;;;;;10.32;61.63;100779.88;1088218;47;934;-81
2023/11/18 10:00:19;;;;;;;;;;;;;;;10.21;62.27;100771.88;1088000;54;970;-81
2023/11/18 10:01:24;;;;;;;;;;;;;;;10.40;61.52;100780.13;1087869;47;1340;-79
2023/11/18 10:02:33;;;;;;;;;;;;;;;10.36;61.32;100777.78;1088125;54;969;-79
2023/11/18 10:03:36;;;;;;;;;;;;;;;10.54;61.16;100767.47;1087789;47;926;-81
2023/11/18 10:04:39;;;;;;;;;;;;;;;10.61;61.15;100768.63;1087988;47;959;-81
2023/11/18 10:05:43;;;;;;;;;;;;;;;10.64;60.79;100765.72;1088080;54;911;-83
2023/11/18 10:06:45;;;;;;;;;;;;;;;10.64;60.73;100767.53;1087985;47;990;-80
2023/11/18 10:07:51;;;;;;;;;;;;;;;10.59;60.89;100770.59;1088001;47;966;-81
2023/11/18 10:08:53;;;;;;;;;;;;;;;10.57;60.79;100767.22;1088048;47;1075;-82
2023/11/18 10:10:01;;;;;;;;;;;;;;;10.52;61.06;100766.72;1087860;54;1101;-81
2023/11/18 10:11:08;;;;;;;;;;;;;;;10.61;60.43;100769.50;1087772;54;1172;-81
2023/11/18 10:12:23;;;;;;;;;;;;;;;10.66;60.23;100769.13;1088045;54;1006;-83
2023/11/18 10:13:27;;;;;;;;;;;;;;;10.54;60.44;100768.28;1088101;54;1838;-83
2023/11/18 10:14:32;;;;;;;;;;;;;;;10.51;60.51;100762.34;1088179;54;965;-82
2023/11/18 10:15:34;;;;;;;;;;;;;;;10.38;61.05;100763.38;1088006;47;946;-82
2023/11/18 10:16:38;;;;;;;;;;;;;;;10.44;61.04;100762.88;1087995;47;985;-83
2023/11/18 10:17:54;;;;;;;;;;;;;;;10.52;60.89;100758.72;1088000;47;970;-82
2023/11/18 10:19:08;;;;;;;;;;;;;;;10.57;60.64;100767.22;1088087;54;999;-82
2023/11/18 10:20:12;;;;;;;;;;;;;;;10.45;60.64;100763.72;1087887;47;947;-83
2023/11/18 10:21:18;;;;;;;;;;;;;;;10.32;61.12;100763.00;1087954;54;1324;-83
2023/11/18 10:22:22;;;;;;;;;;;;;;;10.39;60.74;100757.03;1088048;54;969;-82
2023/11/18 10:23:28;;;;;;;;;;;;;;;10.37;60.70;100750.09;1087897;47;957;-82
2023/11/18 10:24:44;;;;;;;;;;;;;;;10.26;61.15;100757.16;1088045;47;990;-81
2023/11/18 10:25:48;;;;;;;;;;;;;;;10.30;61.17;100763.09;1087818;47;1441;-81
2023/11/18 10:26:55;;;;;;;;;;;;;;;10.20;61.16;100757.69;1087947;47;944;-80
2023/11/18 10:27:59;;;;;;;;;;;;;;;10.23;61.17;100768.13;1088045;54;963;-82
2023/11/18 10:29:07;;;;;;;;;;;;;;;10.16;61.60;100764.22;1087935;54;945;-80
2023/11/18 10:30:18;;;;;;;;;;;;;;;10.09;61.60;100771.06;1088008;47;947;-82
2023/11/18 10:31:21;;;;;;;;;;;;;;;9.99;61.84;100758.44;1087977;54;1290;-82
2023/11/18 10:32:22;;;;;;;;;;;;;;;10.06;61.65;100757.97;1087977;47;1378;-81
2023/11/18 10:33:30;;;;;;;;;;;;;;;9.88;62.35;100752.28;1087947;54;1868;-80
2023/11/18 10:34:31;;;;;;;;;;;;;;;9.99;61.68;100752.25;1087914;54;914;-81
2023/11/18 10:35:35;;;;;;;;;;;;;;;9.96;61.71;100747.16;1087825;47;975;-81
2023/11/18 10:36:36;;;;;;;;;;;;;;;9.94;61.88;100751.78;1087741;47;970;-81
2023/11/18 10:37:42;;;;;;;;;;;;;;;9.92;62.09;100751.91;1087748;47;1023;-82
2023/11/18 10:38:49;;;;;;;;;;;;;;;9.92;62.22;100746.56;1087814;54;999;-81
2023/11/18 10:39:53;;;;;;;;;;;;;;;9.91;62.01;100750.19;1087888;47;906;-81
2023/11/18 10:40:55;;;;;;;;;;;;;;;9.92;62.26;100753.75;1087762;47;1367;-81
2023/11/18 10:42:01;;;;;;;;;;;;;;;9.82;62.70;100754.44;1087824;47;861;-81
2023/11/18 10:43:09;;;;;;;;;;;;;;;9.85;62.67;100761.38;1087811;47;1000;-82
2023/11/18 10:44:13;;;;;;;;;;;;;;;9.91;62.39;100766.22;1087961;47;939;-81
2023/11/18 10:45:23;;;;;;;;;;;;;;;9.94;62.16;100749.09;1087878;47;993;-81
2023/11/18 10:46:27;;;;;;;;;;;;;;;9.90;62.36;100758.34;1087884;47;958;-82
2023/11/18 10:47:28;;;;;;;;;;;;;;;9.98;62.27;100761.25;1087850;47;911;-81
2023/11/18 10:48:34;;;;;;;;;;;;;;;9.89;62.72;100748.63;1087887;47;877;-80
2023/11/18 10:49:36;;;;;;;;;;;;;;;9.78;62.74;100745.00;1087843;54;1139;-82
2023/11/18 10:50:40;;;;;;;;;;;;;;;9.75;62.89;100755.91;1087927;54;913;-82
2023/11/18 10:51:41;;;;;;;;;;;;;;;9.76;62.88;100754.94;1087769;47;1277;-80
2023/11/18 10:52:48;;;;;;;;;;;;;;;9.82;62.67;100756.28;1087142;47;1244;-81
2023/11/18 10:53:58;;;;;;;;;;;;;;;9.47;63.79;100757.25;1087580;47;1844;-80
2023/11/18 10:54:58;;;;;;;;;;;;;;;9.67;63.24;100758.34;1087771;47;957;-80
2023/11/18 10:56:02;;;;;;;;;;;;;;;9.78;63.27;100763.69;1087742;47;963;-80
2023/11/18 10:57:07;;;;;;;;;;;;;;;9.85;62.98;100758.72;1087741;47;1137;-81
2023/11/18 10:58:08;;;;;;;;;;;;;;;9.80;63.08;100758.22;1087861;54;971;-80
2023/11/18 10:59:16;;;;;;;;;;;;;;;9.68;63.78;100754.72;1087731;47;942;-80
2023/11/18 11:00:19;;;;;;;;;;;;;;;9.72;63.74;100748.16;1087800;54;919;-81
2023/11/18 11:01:31;;;;;;;;;;;;;;;9.73;63.63;100752.50;1087725;54;1276;-81
2023/11/18 11:02:38;;;;;;;;;;;;;;;9.87;63.18;100754.06;1087742;47;1586;-81
2023/11/18 11:03:55;;;;;;;;;;;;;;;9.82;63.16;100749.09;1088116;54;1108;-81
2023/11/18 11:04:58;;;;;;;;;;;;;;;9.83;63.02;100749.97;1088123;54;996;-80
2023/11/18 11:06:04;;;;;;;;;;;;;;;9.89;63.11;100756.66;1088141;47;929;-81
2023/11/18 11:07:05;;;;;;;;;;;;;;;9.84;63.28;100747.16;1088127;47;1022;-81
2023/11/18 11:08:08;;;;;;;;;;;;;;;9.86;63.17;100747.06;1088117;47;975;-80
2023/11/18 11:09:16;;;;;;;;;;;;;;;9.77;63.19;100748.63;1088095;54;972;-80
2023/11/18 11:10:25;;;;;;;;;;;;;;;9.70;63.42;100746.56;1088110;47;988;-80
2023/11/18 11:11:37;;;;;;;;;;;;;;;9.83;63.37;100753.47;1088137;47;1332;-80
2023/11/18 11:12:51;;;;;;;;;;;;;;;9.93;62.99;100748.25;1088110;54;957;-80
2023/11/18 11:13:55;;;;;;;;;;;;;;;9.91;63.02;100749.38;1088101;47;1875;-80
2023/11/18 11:15:03;;;;;;;;;;;;;;;9.96;62.80;100744.50;1088172;47;985;-80
2023/11/18 11:16:07;;;;;;;;;;;;;;;10.02;62.68;100741.31;1088477;54;939;-80
2023/11/18 11:17:17;;;;;;;;;;;;;;;10.10;62.68;100743.38;1088537;47;975;-80
2023/11/18 11:18:23;;;;;;;;;;;;;;;10.00;62.93;100737.94;1088481;47;1038;-79
2023/11/18 11:19:44;;;;;;;;;;;;;;;10.05;62.71;100734.91;1088474;54;1012;-80
2023/11/18 11:20:51;;;;;;;;;;;;;;;10.11;62.85;100732.56;1088456;47;938;-80
2023/11/18 11:22:05;;;;;;;;;;;;;;;10.11;62.89;100727.19;1088516;54;937;-80
2023/11/18 11:23:14;;;;;;;;;;;;;;;10.19;62.45;100723.09;1088170;47;976;-80
2023/11/18 11:24:23;;;;;;;;;;;;;;;10.25;62.57;100722.56;1088161;47;952;-80
2023/11/18 11:25:31;;;;;;;;;;;;;;;10.24;62.44;100723.53;1088109;46;956;-80
2023/11/18 11:26:44;;;;;;;;;;;;;;;10.26;62.53;100725.09;1088497;54;864;-80
2023/11/18 11:27:51;;;;;;;;;;;;;;;10.29;62.47;100724.88;1088178;46;960;-80
2023/11/18 11:28:57;;;;;;;;;;;;;;;10.29;62.13;100716.00;1088177;54;991;-80
2023/11/18 11:30:10;;;;;;;;;;;;;;;10.32;61.91;100725.59;1088100;54;1001;-80
2023/11/18 11:31:15;;;;;;;;;;;;;;;10.29;61.98;100721.34;1088078;54;1343;-80
2023/11/18 11:32:24;;;;;;;;;;;;;;;10.27;61.75;100717.94;1088071;47;989;-80
2023/11/18 11:33:29;;;;;;;;;;;;;;;10.26;61.88;100710.91;1087973;54;1848;-80
2023/11/18 11:34:34;;;;;;;;;;;;;;;10.24;61.70;100707.50;1088017;54;986;-79
2023/11/18 11:35:38;;;;;;;;;;;;;;;10.13;62.14;100706.56;1088139;47;952;-81
2023/11/18 11:36:46;;;;;;;;;;;;;;;10.12;62.35;100704.03;1088186;54;1051;-80
2023/11/18 11:37:48;;;;;;;;;;;;;;;10.13;62.41;100706.56;1088137;47;966;-80
2023/11/18 11:38:52;;;;;;;;;;;;;;;10.12;62.09;100715.56;1088131;46;852;-80
2023/11/18 11:39:58;;;;;;;;;;;;;;;10.13;62.15;100711.91;1088137;46;974;-80
2023/11/18 11:41:05;;;;;;;;;;;;;;;10.18;61.78;100708.03;1088202;54;1272;-80
2023/11/18 11:42:09;;;;;;;;;;;;;;;10.15;62.12;100704.63;1088104;54;923;-80
2023/11/18 11:43:20;;;;;;;;;;;;;;;10.05;62.24;100702.84;1088103;47;863;-81
2023/11/18 11:44:28;;;;;;;;;;;;;;;10.19;62.12;100693.69;1088139;47;964;-80
2023/11/18 11:45:32;;;;;;;;;;;;;;;10.26;61.71;100692.19;1088177;47;965;-80
2023/11/18 11:46:35;;;;;;;;;;;;;;;10.32;61.40;100694.34;1088153;54;906;-81
2023/11/18 11:47:45;;;;;;;;;;;;;;;10.36;61.63;100693.13;1088195;54;1022;-80
2023/11/18 11:48:47;;;;;;;;;;;;;;;10.27;61.57;100696.56;1088213;54;933;-80
2023/11/18 11:49:55;;;;;;;;;;;;;;;10.30;61.35;100691.81;1088119;47;975;-80
2023/11/18 11:51:03;;;;;;;;;;;;;;;10.21;61.44;100689.91;1088123;47;1361;-80
2023/11/18 11:52:10;;;;;;;;;;;;;;;10.19;61.40;100683.84;1088096;54;896;-80
2023/11/18 11:53:15;;;;;;;;;;;;;;;10.19;61.38;100678.50;1087759;54;1181;-80
2023/11/18 11:54:28;;;;;;;;;;;;;;;10.07;61.85;100675.03;1088138;54;1856;-81
2023/11/18 11:55:37;;;;;;;;;;;;;;;10.22;61.44;100677.38;1088101;54;979;-81
2023/11/18 11:56:43;;;;;;;;;;;;;;;10.21;61.41;100681.03;1088088;47;992;-80
2023/11/18 11:57:50;;;;;;;;;;;;;;;10.23;61.53;100679.09;1088073;47;935;-80
2023/11/18 11:58:54;;;;;;;;;;;;;;;10.32;61.33;100678.31;1088048;47;977;-80
2023/11/18 11:59:55;;;;;;;;;;;;;;;10.30;61.38;100664.22;1088081;54;1039;-79
2023/11/18 12:00:56;;;;;;;;;;;;;;;10.38;61.44;100672.50;1088400;47;1373;-80
2023/11/18 12:02:01;;;;;;;;;;;;;;;10.37;61.21;100661.91;1088357;47;1217;-80
2023/11/18 12:03:04;;;;;;;;;;;;;;;10.38;61.04;100661.81;1088413;54;1234;-80
2023/11/18 12:04:10;;;;;;;;;;;;;;;10.34;61.09;100660.34;1088341;54;997;-80
2023/11/18 12:05:18;;;;;;;;;;;;;;;10.39;61.42;100657.31;1088444;54;1187;-80
2023/11/18 12:06:23;;;;;;;;;;;;;;;10.43;61.23;100654.25;1088379;54;959;-80
2023/11/18 12:07:27;;;;;;;;;;;;;;;10.42;61.29;100651.72;1088351;47;1546;-80
2023/11/18 12:08:30;;;;;;;;;;;;;;;10.44;61.13;100655.09;1088414;47;1283;-80
2023/11/18 12:09:32;;;;;;;;;;;;;;;10.45;61.43;100657.66;1088375;47;1105;-80
2023/11/18 12:10:40;;;;;;;;;;;;;;;10.38;61.60;100652.94;1088476;54;853;-80
2023/11/18 12:11:46;;;;;;;;;;;;;;;10.39;61.31;100658.16;1088597;54;1426;-80
2023/11/18 12:12:52;;;;;;;;;;;;;;;10.43;61.56;100648.06;1088339;46;977;-80
2023/11/18 12:14:12;;;;;;;;;;;;;;;10.38;61.47;100636.91;1088067;47;1857;-80
2023/11/18 12:15:17;;;;;;;;;;;;;;;10.34;61.74;100630.09;1088176;46;1018;-80
2023/11/18 12:16:20;;;;;;;;;;;;;;;10.36;61.61;100626.31;1087957;47;1004;-80
2023/11/18 12:17:22;;;;;;;;;;;;;;;10.34;61.56;100622.94;1088003;54;1367;-79
2023/11/18 12:18:26;;;;;;;;;;;;;;;10.34;61.88;100622.09;1087604;46;1138;-79
2023/11/18 12:19:32;;;;;;;;;;;;;;;10.26;62.16;100615.53;1087678;47;1071;-80
2023/11/18 12:20:42;;;;;;;;;;;;;;;10.23;62.25;100618.50;1087738;54;1185;-80
2023/11/18 12:21:57;;;;;;;;;;;;;;;10.23;62.30;100617.63;1087830;54;1458;-80
2023/11/18 12:23:05;;;;;;;;;;;;;;;10.28;62.10;100610.91;1088104;47;904;-79
2023/11/18 12:24:25;;;;;;;;;;;;;;;10.17;62.39;100610.13;1088150;46;981;-80
2023/11/18 12:25:31;;;;;;;;;;;;;;;10.24;62.61;100597.94;1088010;54;943;-79
2023/11/18 12:26:43;;;;;;;;;;;;;;;10.16;62.60;100603.94;1088060;54;1008;-80
2023/11/18 12:27:51;;;;;;;;;;;;;;;10.23;62.36;100598.91;1088071;47;963;-80
2023/11/18 12:28:55;;;;;;;;;;;;;;;10.18;62.61;100601.16;1088110;54;937;-79
2023/11/18 12:29:58;;;;;;;;;;;;;;;10.19;62.60;100609.03;1087972;47;886;-80
2023/11/18 12:31:13;;;;;;;;;;;;;;;10.26;62.40;100609.38;1088061;54;1337;-79
2023/11/18 12:32:34;;;;;;;;;;;;;;;10.23;62.39;100604.25;1087969;54;1098;-80
2023/11/18 12:33:52;;;;;;;;;;;;;;;10.26;61.91;100602.19;1087971;54;1039;-80
2023/11/18 12:34:53;;;;;;;;;;;;;;;10.33;61.71;100594.50;1087988;54;1024;-79
2023/11/18 12:36:21;;;;;;;;;;;;;;;10.32;61.89;100595.47;1087823;47;954;-79
2023/11/18 12:37:43;;;;;;;;;;;;;;;10.34;61.73;100598.03;1087940;54;1070;-80
2023/11/18 12:39:03;;;;;;;;;;;;;;;10.26;61.81;100601.34;1087941;47;899;-80
2023/11/18 12:40:24;;;;;;;;;;;;;;;10.32;61.93;100605.34;1087983;54;1043;-79
2023/11/18 12:41:34;;;;;;;;;;;;;;;10.38;61.73;100602.16;1087954;54;1545;-80
2023/11/18 12:43:06;;;;;;;;;;;;;;;10.48;61.81;100604.91;1088002;54;1161;-79
2023/11/18 12:44:18;;;;;;;;;;;;;;;10.35;61.99;100602.38;1088116;54;987;-80
2023/11/18 12:45:37;;;;;;;;;;;;;;;10.33;62.17;100599.84;1088003;54;1130;-80
2023/11/18 12:46:56;;;;;;;;;;;;;;;10.33;61.93;100594.50;1088082;54;1030;-81
2023/11/18 12:48:02;;;;;;;;;;;;;;;10.30;62.03;100590.28;1087982;46;1014;-80
2023/11/18 12:49:06;;;;;;;;;;;;;;;10.32;62.04;100591.97;1087981;46;973;-80
2023/11/18 12:50:16;;;;;;;;;;;;;;;10.25;61.69;100591.63;1088049;54;960;-80
2023/11/18 12:51:22;;;;;;;;;;;;;;;10.27;62.06;100595.88;1087841;46;1374;-80
2023/11/18 12:52:23;;;;;;;;;;;;;;;10.20;61.99;100589.34;1087992;47;841;-81
2023/11/18 12:53:28;;;;;;;;;;;;;;;10.17;62.06;100594.94;1087820;47;1511;-80
2023/11/18 12:54:30;;;;;;;;;;;;;;;10.13;62.27;100588.19;1087934;46;1849;-81
2023/11/18 12:55:34;;;;;;;;;;;;;;;10.18;61.91;100579.78;1088019;47;953;-80
2023/11/18 12:56:36;;;;;;;;;;;;;;;10.22;62.12;100573.19;1088145;54;994;-80
2023/11/18 12:57:40;;;;;;;;;;;;;;;10.23;62.12;100572.19;1087956;47;973;-80
2023/11/18 12:58:41;;;;;;;;;;;;;;;10.05;62.16;100575.44;1087970;47;887;-80
2023/11/18 12:59:47;;;;;;;;;;;;;;;10.08;62.56;100577.88;1087947;47;1041;-80
2023/11/18 13:00:49;;;;;;;;;;;;;;;10.06;62.49;100582.50;1087898;54;1145;-80
2023/11/18 13:01:56;;;;;;;;;;;;;;;10.09;62.36;100582.25;1088297;54;1421;-80
2023/11/18 13:02:57;;;;;;;;;;;;;;;10.09;62.39;100571.56;1088348;54;1228;-80
2023/11/18 13:04:02;;;;;;;;;;;;;;;10.10;62.19;100573.25;1088429;54;938;-80
2023/11/18 13:05:05;;;;;;;;;;;;;;;10.15;62.42;100579.06;1088402;54;1008;-80
2023/11/18 13:06:09;;;;;;;;;;;;;;;10.12;62.14;100573.13;1088281;54;1047;-80
2023/11/18 13:07:11;;;;;;;;;;;;;;;10.13;62.57;100572.16;1088384;46;1026;-80
2023/11/18 13:08:15;;;;;;;;;;;;;;;10.17;62.19;100578.91;1088411;46;943;-80
2023/11/18 13:09:25;;;;;;;;;;;;;;;10.13;62.13;100578.31;1088387;47;1054;-81
2023/11/18 13:10:29;;;;;;;;;;;;;;;10.12;62.16;100583.81;1088438;47;983;-81
2023/11/18 13:11:30;;;;;;;;;;;;;;;10.09;62.63;100582.25;1088315;54;1263;-81
2023/11/18 13:12:34;;;;;;;;;;;;;;;10.17;62.19;100578.91;1088439;54;970;-79
2023/11/18 13:13:35;;;;;;;;;;;;;;;10.24;62.13;100574.78;1088390;47;1030;-79
2023/11/18 13:14:39;;;;;;;;;;;;;;;10.27;61.92;100563.78;1088286;47;1846;-80
2023/11/18 13:15:43;;;;;;;;;;;;;;;10.33;61.93;100561.59;1088382;54;1159;-81
2023/11/18 13:16:47;;;;;;;;;;;;;;;10.34;62.19;100563.28;1088403;54;955;-80
2023/11/18 13:17:56;;;;;;;;;;;;;;;10.30;61.84;100558.19;1088014;47;950;-80
2023/11/18 13:19:00;;;;;;;;;;;;;;;10.27;61.88;100547.75;1088097;46;990;-80
2023/11/18 13:20:12;;;;;;;;;;;;;;;10.29;61.96;100553.00;1088035;47;1118;-80
2023/11/18 13:21:16;;;;;;;;;;;;;;;10.27;62.10;100552.28;1088286;46;1400;-80
2023/11/18 13:22:18;;;;;;;;;;;;;;;10.21;62.43;100542.94;1088381;54;1010;-80
2023/11/18 13:23:22;;;;;;;;;;;;;;;10.20;62.46;100548.44;1088288;54;1696;-80
2023/11/18 13:24:24;;;;;;;;;;;;;;;10.22;62.54;100541.13;1088286;47;1043;-80
2023/11/18 13:25:25;;;;;;;;;;;;;;;10.24;62.51;100536.50;1088308;54;1230;-80
2023/11/18 13:26:31;;;;;;;;;;;;;;;10.19;62.36;100541.41;1088258;47;1126;-80
2023/11/18 13:27:32;;;;;;;;;;;;;;;10.14;62.54;100534.59;1087940;47;1170;-80
2023/11/18 13:28:36;;;;;;;;;;;;;;;10.13;62.73;100530.22;1087958;47;1091;-79
2023/11/18 13:29:39;;;;;;;;;;;;;;;10.20;62.77;100521.72;1088159;54;1106;-79
2023/11/18 13:30:45;;;;;;;;;;;;;;;10.24;62.41;100518.66;1087946;47;1193;-80
2023/11/18 13:31:47;;;;;;;;;;;;;;;10.30;62.25;100528.81;1088017;54;1390;-80
2023/11/18 13:32:52;;;;;;;;;;;;;;;10.19;62.32;100525.38;1088343;54;1129;-80
2023/11/18 13:33:53;;;;;;;;;;;;;;;10.17;62.14;100525.47;1087833;47;1066;-80
2023/11/18 13:34:56;;;;;;;;;;;;;;;10.19;62.25;100528.03;1087982;54;1859;-80
2023/11/18 13:35:58;;;;;;;;;;;;;;;10.19;61.93;100522.69;1087573;47;1039;-79
2023/11/18 13:37:03;;;;;;;;;;;;;;;10.21;62.20;100504.69;1087584;47;1087;-80
2023/11/18 13:38:04;;;;;;;;;;;;;;;10.16;62.21;100507.75;1087655;54;1035;-79
2023/11/18 13:39:13;;;;;;;;;;;;;;;10.15;62.54;100511.44;1087719;54;1075;-79
2023/11/18 13:40:13;;;;;;;;;;;;;;;10.13;62.52;100505.34;1087933;54;979;-80
2023/11/18 13:41:30;;;;;;;;;;;;;;;10.13;62.21;100503.53;1087998;54;1185;-81
2023/11/18 13:42:33;;;;;;;;;;;;;;;10.15;62.26;100504.25;1088044;54;956;-79
2023/11/18 13:43:47;;;;;;;;;;;;;;;10.20;61.83;100505.69;1088303;54;941;-80
2023/11/18 13:44:49;;;;;;;;;;;;;;;10.24;61.79;100499.09;1087971;47;944;-80
2023/11/18 13:45:59;;;;;;;;;;;;;;;10.24;61.66;100504.44;1087972;54;992;-80
2023/11/18 13:47:01;;;;;;;;;;;;;;;10.30;61.63;100502.09;1087906;47;867;-80
2023/11/18 13:48:02;;;;;;;;;;;;;;;10.27;61.60;100494.31;1088008;54;892;-81
2023/11/18 13:49:06;;;;;;;;;;;;;;;10.23;61.73;100486.69;1087863;47;1038;-80
2023/11/18 13:50:08;;;;;;;;;;;;;;;10.18;61.75;100495.09;1087912;54;915;-80
2023/11/18 13:51:12;;;;;;;;;;;;;;;10.15;61.82;100493.56;1087966;54;1341;-80
2023/11/18 13:52:15;;;;;;;;;;;;;;;10.04;61.91;100492.78;1087871;47;890;-80
2023/11/18 13:53:19;;;;;;;;;;;;;;;10.13;61.91;100495.50;1087904;54;1064;-80
2023/11/18 13:54:20;;;;;;;;;;;;;;;10.19;61.72;100488.78;1087838;46;1914;-79
2023/11/18 13:55:27;;;;;;;;;;;;;;;10.20;61.99;100485.16;1087888;47;888;-81
2023/11/18 13:56:28;;;;;;;;;;;;;;;10.07;61.89;100489.84;1087914;54;992;-80
2023/11/18 13:57:32;;;;;;;;;;;;;;;10.04;62.23;100488.28;1087894;47;901;-79
2023/11/18 13:58:33;;;;;;;;;;;;;;;9.94;62.13;100488.22;1087941;54;1342;-80
2023/11/18 13:59:37;;;;;;;;;;;;;;;10.03;62.13;100493.75;1087975;54;953;-80
2023/11/18 14:00:38;;;;;;;;;;;;;;;9.94;62.29;100492.69;1087884;47;902;-80
2023/11/18 14:01:46;;;;;;;;;;;;;;;10.02;62.27;100484.88;1087864;47;1377;-80
2023/11/18 14:02:48;;;;;;;;;;;;;;;10.08;62.21;100494.19;1087889;47;950;-80
2023/11/18 14:03:51;;;;;;;;;;;;;;;10.14;61.77;100489.19;1087903;54;865;-81
2023/11/18 14:04:55;;;;;;;;;;;;;;;10.15;61.85;100482.88;1088092;54;1071;-83
2023/11/18 14:06:02;;;;;;;;;;;;;;;10.06;62.31;100483.66;1087918;54;1167;-82
2023/11/18 14:07:05;;;;;;;;;;;;;;;10.05;62.29;100481.13;1087926;54;1110;-82
2023/11/18 14:08:12;;;;;;;;;;;;;;;10.05;62.21;100476.63;1087781;47;1173;-79
2023/11/18 14:09:12;;;;;;;;;;;;;;;9.94;62.60;100482.88;1087948;54;1088;-80
2023/11/18 14:10:13;;;;;;;;;;;;;;;10.03;62.17;100478.56;1087822;54;1061;-79
2023/11/18 14:11:17;;;;;;;;;;;;;;;10.04;62.55;100480.25;1087809;47;1341;-80
2023/11/18 14:12:19;;;;;;;;;;;;;;;10.13;62.46;100487.50;1087881;47;969;-80
2023/11/18 14:13:21;;;;;;;;;;;;;;;10.15;62.12;100480.19;1087860;47;972;-79
2023/11/18 14:14:32;;;;;;;;;;;;;;;10.08;62.25;100479.03;1087756;47;1848;-80
2023/11/18 14:15:36;;;;;;;;;;;;;;;10.19;62.16;100474.59;1087864;54;949;-80
2023/11/18 14:16:45;;;;;;;;;;;;;;;10.21;62.34;100467.28;1087737;54;943;-80
2023/11/18 14:17:46;;;;;;;;;;;;;;;10.24;62.09;100467.88;1087784;54;980;-79
2023/11/18 14:18:49;;;;;;;;;;;;;;;10.23;62.19;100465.31;1087764;54;1113;-79
2023/11/18 14:19:52;;;;;;;;;;;;;;;10.20;61.87;100465.59;1087788;47;1015;-80
2023/11/18 14:20:56;;;;;;;;;;;;;;;10.20;61.99;100465.59;1087616;47;1348;-80
2023/11/18 14:21:59;;;;;;;;;;;;;;;10.15;62.14;100464.16;1087770;54;891;-79
2023/11/18 14:23:01;;;;;;;;;;;;;;;10.22;61.94;100467.16;1087820;47;939;-80
2023/11/18 14:24:05;;;;;;;;;;;;;;;10.27;61.86;100453.41;1087813;54;960;-80
2023/11/18 14:25:07;;;;;;;;;;;;;;;10.35;61.75;100452.72;1087948;54;1087;-80
2023/11/18 14:26:10;;;;;;;;;;;;;;;10.36;61.86;100455.28;1087853;54;875;-79
2023/11/18 14:27:12;;;;;;;;;;;;;;;10.39;61.98;100449.69;1087875;54;968;-80
2023/11/18 14:28:17;;;;;;;;;;;;;;;10.37;61.98;100454.34;1087761;47;898;-80
2023/11/18 14:29:18;;;;;;;;;;;;;;;10.35;61.86;100450.91;1087774;54;926;-80
2023/11/18 14:30:24;;;;;;;;;;;;;;;10.33;61.67;100449.34;1087726;54;1387;-79
2023/11/18 14:31:25;;;;;;;;;;;;;;;10.22;61.39;100450.25;1087753;47;1256;-80
2023/11/18 14:32:31;;;;;;;;;;;;;;;10.20;61.42;100461.09;1087078;47;979;-79
2023/11/18 14:33:33;;;;;;;;;;;;;;;10.26;61.53;100457.06;1086998;47;1047;-79
2023/11/18 14:34:36;;;;;;;;;;;;;;;10.28;61.37;100453.25;1087708;54;1871;-80
2023/11/18 14:35:37;;;;;;;;;;;;;;;10.16;61.70;100448.97;1087796;47;1018;-80
2023/11/18 14:36:41;;;;;;;;;;;;;;;10.15;61.85;100453.47;1087897;54;1332;-80
2023/11/18 14:37:42;;;;;;;;;;;;;;;10.23;61.74;100446.63;1087146;47;1183;-80
2023/11/18 14:38:47;;;;;;;;;;;;;;;10.19;61.58;100459.41;1087592;47;964;-79
2023/11/18 14:39:48;;;;;;;;;;;;;;;10.17;61.76;100463.19;1087704;47;1129;-80
2023/11/18 14:40:53;;;;;;;;;;;;;;;10.13;61.50;100463.44;1086803;54;1062;-79
2023/11/18 14:41:54;;;;;;;;;;;;;;;10.19;61.50;100463.91;1086414;47;1158;-79
2023/11/18 14:42:58;;;;;;;;;;;;;;;10.06;61.56;100466.78;1086339;47;1018;-79
2023/11/18 14:44:00;;;;;;;;;;;;;;;10.13;61.53;100455.44;1086387;47;1074;-79
2023/11/18 14:45:01;;;;;;;;;;;;;;;9.96;61.82;100458.69;1087828;54;1070;-80
2023/11/18 14:46:05;;;;;;;;;;;;;;;9.91;62.01;100452.91;1087913;47;977;-81
2023/11/18 14:47:07;;;;;;;;;;;;;;;10.04;61.77;100440.19;1087907;54;975;-81
2023/11/18 14:48:13;;;;;;;;;;;;;;;10.13;61.65;100435.91;1087875;47;922;-80
2023/11/18 14:49:14;;;;;;;;;;;;;;;10.07;61.41;100434.59;1087907;54;933;-81
2023/11/18 14:50:19;;;;;;;;;;;;;;;10.07;61.91;100433.72;1088183;47;949;-80
2023/11/18 14:51:22;;;;;;;;;;;;;;;10.08;61.85;100430.94;1087939;54;1154;-80
2023/11/18 14:52:23;;;;;;;;;;;;;;;10.12;61.41;100423.50;1087185;47;1034;-80
2023/11/18 14:53:27;;;;;;;;;;;;;;;10.15;61.48;100426.75;1087970;54;1086;-81
2023/11/18 14:54:30;;;;;;;;;;;;;;;10.16;61.23;100422.25;1088190;47;925;-80
2023/11/18 14:55:34;;;;;;;;;;;;;;;10.13;61.28;100415.34;1088106;54;1858;-82
2023/11/18 14:56:35;;;;;;;;;;;;;;;10.08;61.32;100419.41;1088226;54;969;-80
2023/11/18 14:57:39;;;;;;;;;;;;;;;10.12;61.31;100427.03;1088259;47;951;-80
2023/11/18 14:58:40;;;;;;;;;;;;;;;10.03;61.32;100416.28;1088218;46;1043;-80
2023/11/18 14:59:43;;;;;;;;;;;;;;;10.10;61.34;100417.44;1088232;54;987;-80
2023/11/18 15:00:47;;;;;;;;;;;;;;;10.06;61.58;100411.53;1088195;54;1016;-80
2023/11/18 15:01:52;;;;;;;;;;;;;;;9.98;61.37;100412.19;1088155;47;1233;-80
2023/11/18 15:02:53;;;;;;;;;;;;;;;10.00;61.36;100406.72;1088152;54;1154;-79
2023/11/18 15:03:59;;;;;;;;;;;;;;;10.02;61.22;100399.41;1087040;46;1071;-79
2023/11/18 15:05:00;;;;;;;;;;;;;;;10.05;61.41;100399.16;1087054;54;1063;-80
2023/11/18 15:06:05;;;;;;;;;;;;;;;10.05;61.12;100393.81;1087710;54;1158;-80
2023/11/18 15:07:07;;;;;;;;;;;;;;;10.11;61.08;100393.25;1087431;54;1150;-80
2023/11/18 15:08:12;;;;;;;;;;;;;;;10.13;61.06;100388.63;1087967;54;1107;-80
2023/11/18 15:09:14;;;;;;;;;;;;;;;10.13;61.15;100393.16;1088076;46;1055;-80
2023/11/18 15:10:19;;;;;;;;;;;;;;;10.15;60.96;100404.56;1088243;54;1123;-80
2023/11/18 15:11:21;;;;;;;;;;;;;;;9.98;61.04;100398.81;1088172;54;1277;-80
2023/11/18 15:12:22;;;;;;;;;;;;;;;10.02;61.13;100388.72;1088113;46;945;-80
2023/11/18 15:13:25;;;;;;;;;;;;;;;10.03;60.90;100390.41;1088036;47;1051;-80
2023/11/18 15:14:26;;;;;;;;;;;;;;;10.08;61.08;100398.91;1088183;47;928;-82
2023/11/18 15:15:34;;;;;;;;;;;;;;;9.99;61.03;100405.03;1087903;47;1883;-80
2023/11/18 15:16:35;;;;;;;;;;;;;;;10.05;61.04;100409.84;1088154;54;1019;-81
2023/11/18 15:17:40;;;;;;;;;;;;;;;10.01;61.39;100419.09;1088209;54;1154;-80
2023/11/18 15:18:41;;;;;;;;;;;;;;;10.07;61.23;100423.06;1088205;54;1088;-82
2023/11/18 15:19:47;;;;;;;;;;;;;;;10.00;61.32;100425.44;1087848;47;1110;-81
2023/11/18 15:20:48;;;;;;;;;;;;;;;9.70;61.91;100436.88;1087462;54;1166;-80
2023/11/18 15:21:52;;;;;;;;;;;;;;;9.79;62.07;100433.44;1087816;47;1264;-81
2023/11/18 15:22:52;;;;;;;;;;;;;;;9.69;62.47;100436.03;1087449;46;995;-80
2023/11/18 15:23:59;;;;;;;;;;;;;;;9.82;62.05;100435.84;1087009;47;1090;-82
2023/11/18 15:25:00;;;;;;;;;;;;;;;9.83;61.97;100433.03;1086522;47;1072;-80
2023/11/18 15:26:04;;;;;;;;;;;;;;;9.84;62.01;100429.38;1087098;54;1060;-80
2023/11/18 15:27:04;;;;;;;;;;;;;;;9.92;62.30;100422.56;1086868;47;1474;-81
2023/11/18 15:28:09;;;;;;;;;;;;;;;9.88;62.28;100424.63;1087367;54;1143;-81
2023/11/18 15:29:14;;;;;;;;;;;;;;;9.94;62.06;100418.78;1087743;54;1083;-81
2023/11/18 15:30:18;;;;;;;;;;;;;;;9.95;62.46;100416.94;1087449;54;1181;-82
2023/11/18 15:31:18;;;;;;;;;;;;;;;10.03;62.11;100422.47;1087648;54;1317;-82
2023/11/18 15:32:22;;;;;;;;;;;;;;;10.06;61.78;100422.22;1087851;54;1059;-81
2023/11/18 15:33:23;;;;;;;;;;;;;;;9.92;62.35;100425.25;1087399;54;991;-81
2023/11/18 15:34:26;;;;;;;;;;;;;;;9.98;62.02;100422.03;1087342;54;1377;-80
2023/11/18 15:35:30;;;;;;;;;;;;;;;10.02;62.00;100425.28;1087472;54;1851;-81